createdAt,value
2022-08-10T00:01:51.503Z,95.50
2022-08-10T00:04:23.454Z,94.61
2022-08-10T00:06:55.664Z,94.77
2022-08-10T00:09:24.185Z,94.85
2022-08-10T00:11:52.317Z,94.56
2022-08-10T00:14:20.359Z,94.95
2022-08-10T00:16:47.835Z,94.70
2022-08-10T00:19:18.246Z,95.04
2022-08-10T00:21:46.618Z,94.97
2022-08-10T00:24:13.944Z,95.65
2022-08-10T00:27:52.460Z,95.78
2022-08-10T00:29:39.135Z,96.21
2022-08-10T00:32:06.430Z,95.59
2022-08-10T00:34:35.053Z,95.96
2022-08-10T00:37:11.225Z,97.21
2022-08-10T00:39:39.957Z,98.50
2022-08-10T00:42:11.518Z,99.60
2022-08-10T00:44:45.662Z,100.00
2022-08-10T00:47:22.682Z,100.00
2022-08-10T00:50:08.227Z,100.00
2022-08-10T00:52:36.868Z,99.56
2022-08-10T00:55:11.769Z,98.97
2022-08-10T00:57:40.019Z,97.73
2022-08-10T01:00:09.681Z,96.50
2022-08-10T01:02:36.999Z,96.69
2022-08-10T01:05:09.042Z,96.53
2022-08-10T01:08:02.665Z,96.60
2022-08-10T01:10:43.426Z,97.05
2022-08-10T01:13:25.492Z,96.50
2022-08-10T01:16:24.318Z,96.03
2022-08-10T01:19:31.673Z,95.17
2022-08-10T01:22:53.428Z,94.62
2022-08-10T01:26:11.989Z,94.20
2022-08-10T01:29:34.490Z,94.97
2022-08-10T01:32:07.224Z,94.55
2022-08-10T01:34:51.084Z,94.32
2022-08-10T01:37:23.399Z,95.53
2022-08-10T01:39:57.553Z,95.96
2022-08-10T01:42:31.149Z,96.71
2022-08-10T01:45:04.238Z,97.79
2022-08-10T01:48:01.609Z,98.33
2022-08-10T01:50:59.303Z,97.87
2022-08-10T01:53:41.268Z,97.75
2022-08-10T01:56:13.451Z,98.27
2022-08-10T01:58:44.422Z,98.05
2022-08-10T02:01:23.672Z,97.99
2022-08-10T02:04:08.705Z,98.70
2022-08-10T02:06:50.508Z,98.87
2022-08-10T02:09:37.034Z,98.97
2022-08-10T02:12:08.952Z,98.82
2022-08-10T02:14:44.001Z,98.73
2022-08-10T02:17:59.357Z,100.00
2022-08-10T02:20:26.226Z,100.00
2022-08-10T02:23:10.073Z,100.00
2022-08-10T02:25:44.203Z,100.00
2022-08-10T02:28:29.800Z,100.00
2022-08-10T02:31:30.521Z,100.00
2022-08-10T02:33:59.811Z,100.00
2022-08-10T02:36:34.664Z,100.00
2022-08-10T02:39:07.709Z,100.00
2022-08-10T02:45:22.325Z,100.00
2022-08-10T02:45:31.656Z,100.00
2022-08-10T02:48:29.317Z,100.00
2022-08-10T02:51:02.247Z,100.00
2022-08-10T02:53:55.408Z,100.00
2022-08-10T02:56:49.479Z,100.00
2022-08-10T02:59:25.178Z,100.00
2022-08-10T03:02:07.194Z,100.00
2022-08-10T03:04:55.378Z,100.00
2022-08-10T03:07:43.722Z,100.00
2022-08-10T03:10:18.003Z,100.00
2022-08-10T03:13:01.561Z,100.00
2022-08-10T03:15:33.032Z,100.00
2022-08-10T03:18:01.306Z,100.00
2022-08-10T03:20:39.741Z,100.00
2022-08-10T03:23:24.285Z,100.00
2022-08-10T03:26:14.892Z,100.00
2022-08-10T03:28:45.787Z,100.00
2022-08-10T03:31:13.433Z,100.00
2022-08-10T03:33:43.952Z,100.00
2022-08-10T03:36:42.492Z,100.00
2022-08-10T03:39:07.552Z,100.00
2022-08-10T03:41:53.483Z,100.00
2022-08-10T03:44:27.883Z,100.00
2022-08-10T03:47:02.433Z,100.00
2022-08-10T03:49:31.499Z,100.00
2022-08-10T03:52:07.114Z,100.00
2022-08-10T03:54:35.550Z,100.00
2022-08-10T03:57:15.102Z,100.00
2022-08-10T03:59:54.609Z,100.00
2022-08-10T04:02:46.823Z,100.00
2022-08-10T04:05:16.179Z,100.00
2022-08-10T04:07:51.653Z,100.00
2022-08-10T04:10:18.934Z,100.00
2022-08-10T04:12:46.932Z,100.00
2022-08-10T04:15:18.237Z,100.00
2022-08-10T04:18:05.067Z,100.00
2022-08-10T04:20:41.271Z,100.00
2022-08-10T04:23:25.582Z,100.00
2022-08-10T04:25:53.718Z,100.00
2022-08-10T04:28:20.950Z,100.00
2022-08-10T04:30:50.566Z,100.00
2022-08-10T04:33:21.200Z,100.00
2022-08-10T04:35:54.400Z,100.00
2022-08-10T04:38:22.684Z,100.00
2022-08-10T04:40:58.708Z,100.00
2022-08-10T04:43:31.905Z,100.00
2022-08-10T04:46:08.876Z,100.00
2022-08-10T04:49:01.576Z,100.00
2022-08-10T04:51:36.237Z,100.00
2022-08-10T04:54:15.923Z,100.00
2022-08-10T04:56:46.175Z,100.00
2022-08-10T04:59:14.275Z,100.00
2022-08-10T05:02:22.109Z,100.00
2022-08-10T05:04:34.974Z,100.00
2022-08-10T05:07:18.555Z,100.00
2022-08-10T05:10:02.781Z,100.00
2022-08-10T05:12:42.455Z,100.00
2022-08-10T05:15:12.970Z,100.00
2022-08-10T05:18:09.668Z,100.00
2022-08-10T05:20:37.398Z,100.00
2022-08-10T05:23:04.826Z,100.00
2022-08-10T05:25:32.478Z,100.00
2022-08-10T05:28:05.691Z,100.00
2022-08-10T05:30:40.377Z,100.00
2022-08-10T05:33:08.964Z,100.00
2022-08-10T05:35:55.501Z,100.00
2022-08-10T05:38:32.760Z,100.00
2022-08-10T05:41:01.320Z,100.00
2022-08-10T05:43:34.678Z,100.00
2022-08-10T05:46:20.000Z,100.00
2022-08-10T05:48:59.489Z,100.00
2022-08-10T05:51:29.191Z,100.00
2022-08-10T05:54:16.823Z,99.00
2022-08-10T05:56:55.937Z,98.66
2022-08-10T06:00:10.869Z,98.56
2022-08-10T06:02:47.155Z,97.03
2022-08-10T06:05:30.056Z,95.47
2022-08-10T06:08:12.263Z,94.92
2022-08-10T06:12:24.504Z,94.25
2022-08-10T06:14:18.349Z,93.76
2022-08-10T06:16:55.797Z,92.12
2022-08-10T06:19:25.661Z,91.72
2022-08-10T06:22:02.185Z,90.56
2022-08-10T06:24:57.281Z,89.95
2022-08-10T06:27:39.767Z,88.59
2022-08-10T06:30:19.862Z,88.86
2022-08-10T06:32:53.025Z,87.24
2022-08-10T06:35:21.181Z,87.27
2022-08-10T06:37:51.670Z,85.47
2022-08-10T06:40:21.001Z,86.49
2022-08-10T06:42:56.510Z,86.23
2022-08-10T06:45:30.357Z,85.25
2022-08-10T06:48:07.077Z,83.89
2022-08-10T06:50:58.313Z,83.42
2022-08-10T06:53:52.898Z,84.12
2022-08-10T06:56:50.888Z,83.64
2022-08-10T06:59:49.782Z,83.49
2022-08-10T07:03:08.034Z,80.53
2022-08-10T07:05:41.099Z,80.57
2022-08-10T07:08:44.255Z,77.35
2022-08-10T07:11:22.393Z,77.44
2022-08-10T07:14:15.317Z,76.36
2022-08-10T07:16:46.767Z,76.88
2022-08-10T07:19:15.398Z,75.54
2022-08-10T07:21:46.931Z,73.24
2022-08-10T07:24:17.720Z,73.85
2022-08-10T07:26:53.518Z,72.60
2022-08-10T07:29:53.905Z,74.42
2022-08-10T07:32:19.659Z,72.27
2022-08-10T07:34:49.709Z,71.08
2022-08-10T07:37:26.957Z,70.02
2022-08-10T07:40:05.026Z,68.55
2022-08-10T07:42:42.086Z,68.97
2022-08-10T07:45:32.029Z,65.95
2022-08-10T07:48:32.334Z,66.53
2022-08-10T07:51:16.714Z,67.26
2022-08-10T07:53:48.422Z,65.97
2022-08-10T07:56:48.483Z,65.05
2022-08-10T07:59:20.766Z,64.58
2022-08-10T08:01:52.210Z,64.04
2022-08-10T08:04:24.354Z,64.27
2022-08-10T08:06:53.941Z,64.22
2022-08-10T08:09:22.350Z,62.97
2022-08-10T08:11:53.562Z,64.13
2022-08-10T08:14:23.094Z,59.81
2022-08-10T08:16:54.252Z,61.61
2022-08-10T08:19:26.838Z,61.02
2022-08-10T08:24:04.926Z,60.22
2022-08-10T08:24:47.153Z,59.27
2022-08-10T08:27:37.382Z,59.96
2022-08-10T08:30:09.914Z,59.79
2022-08-10T08:32:44.308Z,59.87
2022-08-10T08:35:15.987Z,58.66
2022-08-10T08:38:32.043Z,58.69
2022-08-10T08:41:04.192Z,57.49
2022-08-10T08:43:50.482Z,57.28
2022-08-10T08:46:35.090Z,53.95
2022-08-10T08:50:05.104Z,56.45
2022-08-10T08:52:41.135Z,53.55
2022-08-10T08:56:03.807Z,54.34
2022-08-10T08:58:48.021Z,54.82
2022-08-10T09:01:36.699Z,52.51
2022-08-10T09:04:44.844Z,53.18
2022-08-10T09:08:00.852Z,53.22
2022-08-10T09:11:05.419Z,52.06
2022-08-10T09:13:57.713Z,53.31
2022-08-10T09:16:52.076Z,54.13
2022-08-10T09:19:37.836Z,52.01
2022-08-10T09:22:19.358Z,51.77
2022-08-10T09:25:21.334Z,52.50
2022-08-10T09:28:04.133Z,51.43
2022-08-10T09:31:18.519Z,51.77
2022-08-10T09:36:20.904Z,51.15
2022-08-10T09:38:01.176Z,50.78
2022-08-10T09:41:05.093Z,49.41
2022-08-10T09:44:00.762Z,49.83
2022-08-10T09:46:52.208Z,47.67
2022-08-10T09:49:56.342Z,48.07
2022-08-10T09:52:58.892Z,47.33
2022-08-10T09:56:18.118Z,45.07
2022-08-10T10:00:01.739Z,43.92
2022-08-10T10:02:58.288Z,43.96
2022-08-10T10:05:31.211Z,43.01
2022-08-10T10:08:43.270Z,42.21
2022-08-10T10:11:22.360Z,42.07
2022-08-10T10:14:28.008Z,41.13
2022-08-10T10:17:36.345Z,41.85
2022-08-10T10:20:15.939Z,39.72
2022-08-10T10:23:01.670Z,41.39
2022-08-10T10:26:15.894Z,40.01
2022-08-10T10:29:24.702Z,39.38
2022-08-10T10:32:07.390Z,40.42
2022-08-10T10:34:50.774Z,41.69
2022-08-10T10:38:01.920Z,42.19
2022-08-10T10:40:21.547Z,42.93
2022-08-10T10:43:10.710Z,42.60
2022-08-10T10:46:13.485Z,42.37
2022-08-10T10:49:01.787Z,42.95
2022-08-10T10:51:55.913Z,40.34
2022-08-10T10:54:55.705Z,40.19
2022-08-10T10:57:59.056Z,40.15
2022-08-10T11:01:21.006Z,37.96
2022-08-10T11:04:09.314Z,37.97
2022-08-10T11:07:30.976Z,36.17
2022-08-10T11:10:32.025Z,36.12
2022-08-10T11:14:23.103Z,35.76
2022-08-10T11:16:26.362Z,36.94
2022-08-10T11:19:13.602Z,36.66
2022-08-10T11:22:05.881Z,37.06
2022-08-10T11:25:00.377Z,36.47
2022-08-10T11:31:20.270Z,32.56
2022-08-10T11:34:11.668Z,32.83
2022-08-10T11:36:53.905Z,33.79
2022-08-10T11:39:49.657Z,33.17
2022-08-10T11:42:26.618Z,32.92
2022-08-10T11:45:29.367Z,30.67
2022-08-10T11:48:53.038Z,31.81
2022-08-10T11:52:16.967Z,33.00
2022-08-10T11:54:58.862Z,33.75
2022-08-10T11:57:54.093Z,33.65
2022-08-10T12:00:20.507Z,33.21
2022-08-10T12:03:07.746Z,31.62
2022-08-10T12:05:51.873Z,31.63
2022-08-10T12:10:02.626Z,32.50
2022-08-10T12:11:25.248Z,32.22
2022-08-10T12:14:24.805Z,31.64
2022-08-10T12:17:30.089Z,31.00
2022-08-10T12:20:23.868Z,30.56
2022-08-10T12:23:02.485Z,30.29
2022-08-10T12:25:58.933Z,29.57
2022-08-10T12:28:50.885Z,29.58
2022-08-10T12:31:43.830Z,28.82
2022-08-10T12:34:19.769Z,29.43
2022-08-10T12:37:18.219Z,28.69
2022-08-10T12:40:36.316Z,29.21
2022-08-10T12:44:04.685Z,29.71
2022-08-10T12:46:51.371Z,30.21
2022-08-10T12:50:29.849Z,30.76
2022-08-10T12:53:15.355Z,29.61
2022-08-10T12:55:45.768Z,30.32
2022-08-10T12:58:59.244Z,30.87
2022-08-10T13:01:17.351Z,31.26
2022-08-10T13:04:20.821Z,31.39
2022-08-10T13:06:53.563Z,32.43
2022-08-10T13:09:25.380Z,32.78
2022-08-10T13:12:35.042Z,31.90
2022-08-10T13:15:45.424Z,30.88
2022-08-10T13:18:18.702Z,28.56
2022-08-10T13:20:53.861Z,27.98
2022-08-10T13:23:32.118Z,27.87
2022-08-10T13:26:04.289Z,27.66
2022-08-10T13:28:49.652Z,27.88
2022-08-10T13:31:35.708Z,27.37
2022-08-10T13:34:43.027Z,27.65
2022-08-10T13:37:26.841Z,26.80
2022-08-10T13:40:00.436Z,28.16
2022-08-10T13:42:34.267Z,28.31
2022-08-10T13:45:12.471Z,28.99
2022-08-10T13:47:48.987Z,28.91
2022-08-10T13:50:35.475Z,30.17
2022-08-10T13:53:14.840Z,30.70
2022-08-10T13:55:57.353Z,31.25
2022-08-10T13:58:37.907Z,31.15
2022-08-10T14:01:17.653Z,31.31
2022-08-10T14:03:46.231Z,30.79
2022-08-10T14:06:15.695Z,30.93
2022-08-10T14:08:50.601Z,30.90
2022-08-10T14:11:20.606Z,31.46
2022-08-10T14:14:04.060Z,30.49
2022-08-10T14:16:42.789Z,29.71
2022-08-10T14:19:33.065Z,29.19
2022-08-10T14:22:09.492Z,29.08
2022-08-10T14:24:38.578Z,29.67
2022-08-10T14:27:09.280Z,30.02
2022-08-10T14:30:00.871Z,31.02
2022-08-10T14:32:44.118Z,31.79
2022-08-10T14:36:18.995Z,31.43
2022-08-10T14:38:09.794Z,31.79
2022-08-10T14:40:44.169Z,31.99
2022-08-10T14:43:28.561Z,30.39
2022-08-10T14:46:05.756Z,29.38
2022-08-10T14:48:45.515Z,27.89
2022-08-10T14:51:26.252Z,28.52
2022-08-10T14:54:01.972Z,27.11
2022-08-10T14:56:36.799Z,27.16
2022-08-10T14:59:07.740Z,27.69
2022-08-10T15:02:01.423Z,27.46
2022-08-10T15:04:34.506Z,28.05
2022-08-10T15:07:12.788Z,28.65
2022-08-10T15:10:00.688Z,29.34
2022-08-10T15:12:34.759Z,28.42
2022-08-10T15:15:09.917Z,28.45
2022-08-10T15:17:43.314Z,27.69
2022-08-10T15:20:21.004Z,28.63
2022-08-10T15:22:55.508Z,29.06
2022-08-10T15:25:25.996Z,28.47
2022-08-10T15:28:05.598Z,28.53
2022-08-10T15:30:55.685Z,28.25
2022-08-10T15:34:04.490Z,28.46
2022-08-10T15:37:02.499Z,27.93
2022-08-10T15:40:24.543Z,28.42
2022-08-10T15:43:25.277Z,29.05
2022-08-10T15:45:58.516Z,28.42
2022-08-10T15:48:58.879Z,28.36
2022-08-10T15:51:53.645Z,28.03
2022-08-10T15:54:54.475Z,28.26
2022-08-10T15:57:28.093Z,28.11
2022-08-10T16:00:08.374Z,28.10
2022-08-10T16:02:52.351Z,28.19
2022-08-10T16:06:01.972Z,28.07
2022-08-10T16:10:22.902Z,28.33
2022-08-10T16:11:59.109Z,27.98
2022-08-10T16:14:31.551Z,28.74
2022-08-10T16:17:01.649Z,29.51
2022-08-10T16:19:30.735Z,30.25
2022-08-10T16:22:37.156Z,30.70
2022-08-10T16:24:56.370Z,31.43
2022-08-10T16:27:33.295Z,31.98
2022-08-10T16:30:07.732Z,31.92
2022-08-10T16:32:50.310Z,32.79
2022-08-10T16:35:20.310Z,32.86
2022-08-10T16:37:58.227Z,33.51
2022-08-10T16:40:29.581Z,33.26
2022-08-10T16:43:00.188Z,33.37
2022-08-10T16:45:51.296Z,33.30
2022-08-10T16:48:48.664Z,33.64
2022-08-10T16:51:17.584Z,34.06
2022-08-10T16:54:02.010Z,34.39
2022-08-10T16:56:48.470Z,34.63
2022-08-10T16:59:20.763Z,34.74
2022-08-10T17:02:20.262Z,34.91
2022-08-10T17:05:00.955Z,35.62
2022-08-10T17:08:12.891Z,35.57
2022-08-10T17:10:42.698Z,35.92
2022-08-10T17:13:38.806Z,35.83
2022-08-10T17:16:17.805Z,35.49
2022-08-10T17:18:55.083Z,35.54
2022-08-10T17:21:31.150Z,35.50
2022-08-10T17:24:08.106Z,35.46
2022-08-10T17:26:38.278Z,35.59
2022-08-10T17:29:57.254Z,35.33
2022-08-10T17:32:46.146Z,35.35
2022-08-10T17:35:22.504Z,35.69
2022-08-10T17:38:10.308Z,35.97
2022-08-10T17:41:06.938Z,35.84
2022-08-10T17:43:46.387Z,35.74
2022-08-10T17:46:31.317Z,36.06
2022-08-10T17:49:19.675Z,36.53
2022-08-10T17:51:58.317Z,36.57
2022-08-10T17:55:09.020Z,36.99
2022-08-10T17:57:47.420Z,36.89
2022-08-10T18:00:41.722Z,37.62
2022-08-10T18:03:29.821Z,37.86
2022-08-10T18:06:06.164Z,37.74
2022-08-10T18:09:03.380Z,39.42
2022-08-10T18:11:35.026Z,39.31
2022-08-10T18:14:24.275Z,39.78
2022-08-10T18:16:55.043Z,39.81
2022-08-10T18:19:30.627Z,39.91
2022-08-10T18:21:59.278Z,39.96
2022-08-10T18:24:56.449Z,40.42
2022-08-10T18:27:46.524Z,40.62
2022-08-10T18:30:30.563Z,40.70
2022-08-10T18:33:19.012Z,40.73
2022-08-10T18:35:48.367Z,40.93
2022-08-10T18:38:26.877Z,41.35
2022-08-10T18:41:16.123Z,41.53
2022-08-10T18:44:19.359Z,42.37
2022-08-10T18:47:16.442Z,42.84
2022-08-10T18:50:05.939Z,42.93
2022-08-10T18:52:36.101Z,43.10
2022-08-10T18:55:13.937Z,43.38
2022-08-10T18:58:27.039Z,45.92
2022-08-10T19:01:32.967Z,48.57
2022-08-10T19:04:28.014Z,50.24
2022-08-10T19:07:32.241Z,51.24
2022-08-10T19:10:21.049Z,52.40
2022-08-10T19:13:17.709Z,53.21
2022-08-10T19:16:10.765Z,53.92
2022-08-10T19:19:21.787Z,54.77
2022-08-10T19:22:29.239Z,55.74
2022-08-10T19:26:42.996Z,56.69
2022-08-10T19:28:30.286Z,57.31
2022-08-10T19:31:15.376Z,58.43
2022-08-10T19:34:24.368Z,59.40
2022-08-10T19:37:03.267Z,58.96
2022-08-10T19:40:12.408Z,58.92
2022-08-10T19:42:55.980Z,60.19
2022-08-10T19:46:01.164Z,62.32
2022-08-10T19:49:00.269Z,63.04
2022-08-10T19:51:37.488Z,62.76
2022-08-10T19:54:46.410Z,62.41
2022-08-10T19:58:04.628Z,63.64
2022-08-10T20:00:47.190Z,64.62
2022-08-10T20:03:37.100Z,63.48
2022-08-10T20:06:42.643Z,63.73
2022-08-10T20:09:39.009Z,64.93
2022-08-10T20:12:10.590Z,66.40
2022-08-10T20:15:17.059Z,66.72
2022-08-10T20:18:02.253Z,66.89
2022-08-10T20:20:48.757Z,66.33
2022-08-10T20:23:33.767Z,66.03
2022-08-10T20:26:32.713Z,66.97
2022-08-10T20:29:16.107Z,68.04
2022-08-10T20:32:15.511Z,68.55
2022-08-10T20:34:48.074Z,69.13
2022-08-10T20:38:03.981Z,69.28
2022-08-10T20:41:09.213Z,70.89
2022-08-10T20:43:52.154Z,70.71
2022-08-10T20:46:27.729Z,70.04
2022-08-10T20:49:32.462Z,69.61
2022-08-10T20:52:03.358Z,69.56
2022-08-10T20:54:51.519Z,70.22
2022-08-10T20:58:04.626Z,70.20
2022-08-10T21:00:36.178Z,69.18
2022-08-10T21:03:09.077Z,68.19
2022-08-10T21:06:27.356Z,68.29
2022-08-10T21:09:33.189Z,68.11
2022-08-10T21:12:44.761Z,68.28
2022-08-10T21:15:43.850Z,69.84
2022-08-10T21:18:44.659Z,71.10
2022-08-10T21:21:37.751Z,70.95
2022-08-10T21:24:21.268Z,71.32
2022-08-10T21:27:49.684Z,71.80
2022-08-10T21:31:02.574Z,73.51
2022-08-10T21:33:49.126Z,74.12
2022-08-10T21:36:35.437Z,73.52
2022-08-10T21:39:22.381Z,74.22
2022-08-10T21:42:57.664Z,73.53
2022-08-10T21:46:18.015Z,73.65
2022-08-10T21:49:15.194Z,73.62
2022-08-10T21:52:20.775Z,74.55
2022-08-10T21:55:22.085Z,75.12
2022-08-10T21:59:00.870Z,75.86
2022-08-10T22:02:10.089Z,75.58
2022-08-10T22:05:26.026Z,75.98
2022-08-10T22:08:37.237Z,76.69
2022-08-10T22:11:30.117Z,77.44
2022-08-10T22:14:51.763Z,77.94
2022-08-10T22:18:03.163Z,77.36
2022-08-10T22:21:45.905Z,77.29
2022-08-10T22:25:16.559Z,76.90
2022-08-10T22:28:17.681Z,76.77
2022-08-10T22:31:32.729Z,77.03
2022-08-10T22:34:39.372Z,77.91
2022-08-10T22:37:40.023Z,79.12
2022-08-10T22:40:36.614Z,79.12
2022-08-10T22:43:51.027Z,78.67
2022-08-10T22:46:53.158Z,79.56
2022-08-10T22:49:25.937Z,79.89
2022-08-10T22:52:14.400Z,79.57
2022-08-10T22:58:25.739Z,79.82
2022-08-10T23:01:05.218Z,80.89
2022-08-10T23:03:38.836Z,82.60
2022-08-10T23:06:17.313Z,82.84
2022-08-10T23:09:00.228Z,82.17
2022-08-10T23:11:30.273Z,82.16
2022-08-10T23:14:34.163Z,83.59
2022-08-10T23:17:21.887Z,83.13
2022-08-10T23:20:13.606Z,84.21
2022-08-10T23:22:49.099Z,85.00
2022-08-10T23:25:30.309Z,84.63
2022-08-10T23:28:12.312Z,83.63
2022-08-10T23:30:51.550Z,82.59
2022-08-10T23:33:37.606Z,82.19
2022-08-10T23:36:34.268Z,82.20
2022-08-10T23:39:24.467Z,82.24
2022-08-10T23:42:20.735Z,82.54
2022-08-10T23:44:56.378Z,82.73
2022-08-10T23:47:55.234Z,81.88
2022-08-10T23:50:25.336Z,82.16
2022-08-10T23:53:00.658Z,81.99
2022-08-10T23:55:33.913Z,81.95
2022-08-10T23:58:31.610Z,81.82
